createdAt,value
2019-02-21T00:00:50.013Z,1014.83
2019-02-21T00:05:50.017Z,1014.82
2019-02-21T00:10:51.047Z,1014.88
2019-02-21T00:15:51.025Z,1014.88
2019-02-21T00:20:52.007Z,1014.86
2019-02-21T00:25:55.676Z,1014.92
2019-02-21T00:30:53.044Z,1014.98
2019-02-21T00:35:53.059Z,1015.00
2019-02-21T00:40:54.030Z,1014.93
2019-02-21T00:45:54.036Z,1014.88
2019-02-21T00:50:54.094Z,1014.88
2019-02-21T00:55:54.015Z,1014.88
2019-02-21T01:00:53.135Z,1014.91
2019-02-21T01:05:53.067Z,1014.85
2019-02-21T01:10:53.033Z,1014.90
2019-02-21T01:15:53.057Z,1015.02
2019-02-21T01:20:52.295Z,1015.03
2019-02-21T01:25:52.106Z,1015.07
2019-02-21T01:30:56.966Z,1015.12
2019-02-21T01:35:51.247Z,1015.11
2019-02-21T01:40:51.024Z,1015.10
2019-02-21T01:45:51.073Z,1015.00
2019-02-21T01:50:51.087Z,1015.02
2019-02-21T01:55:51.059Z,1015.03
2019-02-21T02:00:50.243Z,1015.00
2019-02-21T02:05:51.052Z,1015.07
2019-02-21T02:10:50.303Z,1015.17
2019-02-21T02:15:50.078Z,1015.10
2019-02-21T02:20:50.327Z,1015.09
2019-02-21T02:25:50.081Z,1015.24
2019-02-21T02:30:49.250Z,1015.29
2019-02-21T02:35:48.731Z,1015.25
2019-02-21T02:40:48.288Z,1015.22
2019-02-21T02:45:48.113Z,1015.24
2019-02-21T02:50:47.066Z,1015.34
2019-02-21T02:55:47.096Z,1015.34
2019-02-21T03:00:47.296Z,1015.40
2019-02-21T03:05:47.086Z,1015.40
2019-02-21T03:10:47.130Z,1015.40
2019-02-21T03:15:47.100Z,1015.43
2019-02-21T03:20:46.511Z,1015.46
2019-02-21T03:25:46.085Z,1015.31
2019-02-21T03:30:45.178Z,1015.37
2019-02-21T03:35:46.149Z,1015.35
2019-02-21T03:40:45.076Z,1015.32
2019-02-21T03:45:45.348Z,1015.30
2019-02-21T03:50:45.547Z,1015.38
2019-02-21T03:55:44.094Z,1015.38
2019-02-21T04:00:45.542Z,1015.40
2019-02-21T04:05:44.367Z,1015.40
2019-02-21T04:10:43.308Z,1015.43
2019-02-21T04:15:43.328Z,1015.35
2019-02-21T04:20:43.111Z,1015.38
2019-02-21T04:25:43.363Z,1015.33
2019-02-21T04:30:42.149Z,1015.28
2019-02-21T04:35:41.400Z,1015.30
2019-02-21T04:40:41.187Z,1015.33
2019-02-21T04:45:41.399Z,1015.18
2019-02-21T04:50:41.210Z,1015.18
2019-02-21T04:55:40.742Z,1015.13
2019-02-21T05:00:40.130Z,1015.05
2019-02-21T05:05:39.169Z,1015.13
2019-02-21T05:10:39.601Z,1015.15
2019-02-21T05:15:38.151Z,1015.09
2019-02-21T05:20:37.324Z,1015.14
2019-02-21T05:25:37.167Z,1015.10
2019-02-21T05:30:36.541Z,1015.07
2019-02-21T05:35:36.340Z,1015.07
2019-02-21T05:40:35.206Z,1015.16
2019-02-21T05:45:36.180Z,1015.15
2019-02-21T05:50:35.146Z,1015.10
2019-02-21T05:55:36.243Z,1015.15
2019-02-21T06:00:37.034Z,1015.17
2019-02-21T06:05:36.436Z,1015.30
2019-02-21T06:10:36.554Z,1015.24
2019-02-21T06:15:36.217Z,1015.40
2019-02-21T06:20:36.214Z,1015.34
2019-02-21T06:25:36.237Z,1015.29
2019-02-21T06:30:35.576Z,1015.31
2019-02-21T06:35:36.209Z,1015.48
2019-02-21T06:40:36.531Z,1015.42
2019-02-21T06:45:35.185Z,1015.41
2019-02-21T06:50:35.202Z,1015.50
2019-02-21T06:55:34.209Z,1015.50
2019-02-21T07:00:35.248Z,1015.55
2019-02-21T07:05:37.011Z,1015.68
2019-02-21T07:10:35.226Z,1015.65
2019-02-21T07:15:36.233Z,1015.65
2019-02-21T07:20:35.308Z,1015.68
2019-02-21T07:25:35.410Z,1015.67
2019-02-21T07:30:34.360Z,1015.68
2019-02-21T07:35:34.230Z,1015.78
2019-02-21T07:40:34.318Z,1015.77
2019-02-21T07:45:35.944Z,1015.92
2019-02-21T07:50:32.403Z,1015.88
2019-02-21T07:55:31.533Z,1015.97
2019-02-21T08:00:31.772Z,1015.99
2019-02-21T08:05:30.432Z,1016.03
2019-02-21T08:10:33.260Z,1016.11
2019-02-21T08:15:30.444Z,1016.05
2019-02-21T08:20:34.043Z,1016.01
2019-02-21T08:25:30.462Z,1016.21
2019-02-21T08:30:29.711Z,1016.22
2019-02-21T08:35:28.307Z,1016.24
2019-02-21T08:40:28.550Z,1016.25
2019-02-21T08:45:28.504Z,1016.22
2019-02-21T08:50:28.246Z,1016.29
2019-02-21T08:55:27.287Z,1016.45
2019-02-21T09:00:27.570Z,1016.32
2019-02-21T09:05:27.249Z,1016.20
2019-02-21T09:10:27.681Z,1016.41
2019-02-21T09:15:26.238Z,1016.42
2019-02-21T09:20:26.297Z,1016.40
2019-02-21T09:25:26.277Z,1016.44
2019-02-21T09:30:25.302Z,1016.47
2019-02-21T09:35:25.260Z,1016.49
2019-02-21T09:40:25.447Z,1016.55
2019-02-21T09:45:25.275Z,1016.69
2019-02-21T09:50:25.311Z,1016.73
2019-02-21T09:55:25.539Z,1016.77
2019-02-21T10:00:25.278Z,1016.58
2019-02-21T10:05:25.301Z,1016.48
2019-02-21T10:10:25.288Z,1016.68
2019-02-21T10:15:25.298Z,1016.72
2019-02-21T10:20:25.345Z,1016.77
2019-02-21T10:25:25.323Z,1016.87
2019-02-21T10:30:24.639Z,1016.94
2019-02-21T10:35:25.276Z,1016.72
2019-02-21T10:40:25.261Z,1016.56
2019-02-21T10:45:25.272Z,1016.60
2019-02-21T10:50:24.279Z,1016.68
2019-02-21T10:55:24.284Z,1016.57
2019-02-21T11:00:24.321Z,1016.56
2019-02-21T11:05:24.345Z,1016.68
2019-02-21T11:10:23.458Z,1016.54
2019-02-21T11:15:23.322Z,1016.43
2019-02-21T11:20:24.308Z,1016.37
2019-02-21T11:25:23.307Z,1016.39
2019-02-21T11:30:22.564Z,1016.42
2019-02-21T11:35:23.330Z,1016.42
2019-02-21T11:40:22.609Z,1016.42
2019-02-21T11:45:23.291Z,1016.44
2019-02-21T11:50:23.273Z,1016.46
2019-02-21T11:55:24.303Z,1016.48
2019-02-21T12:00:24.450Z,1016.55
2019-02-21T12:05:30.650Z,1016.56
2019-02-21T12:10:24.291Z,1016.47
2019-02-21T12:15:24.277Z,1016.39
2019-02-21T12:20:24.252Z,1016.31
2019-02-21T12:25:25.309Z,1016.29
2019-02-21T12:30:26.353Z,1016.24
2019-02-21T12:35:29.541Z,1016.21
2019-02-21T12:40:25.264Z,1016.16
2019-02-21T12:45:25.500Z,1016.24
2019-02-21T12:50:25.367Z,1016.19
2019-02-21T12:55:28.137Z,1016.09
2019-02-21T13:00:27.271Z,1016.20
2019-02-21T13:05:27.394Z,1016.13
2019-02-21T13:10:26.256Z,1016.18
2019-02-21T13:15:26.314Z,1016.30
2019-02-21T13:20:25.270Z,1016.37
2019-02-21T13:25:25.333Z,1016.31
2019-02-21T13:30:24.585Z,1016.35
2019-02-21T13:35:24.234Z,1016.29
2019-02-21T13:40:24.554Z,1016.39
2019-02-21T13:45:24.467Z,1016.51
2019-02-21T13:50:24.559Z,1016.42
2019-02-21T13:55:24.356Z,1016.54
2019-02-21T14:00:25.346Z,1016.55
2019-02-21T14:05:25.371Z,1016.48
2019-02-21T14:10:25.515Z,1016.58
2019-02-21T14:15:24.277Z,1016.58
2019-02-21T14:20:24.534Z,1016.49
2019-02-21T14:25:23.272Z,1016.46
2019-02-21T14:30:23.293Z,1016.60
2019-02-21T14:35:22.289Z,1016.62
2019-02-21T14:40:22.301Z,1016.60
2019-02-21T14:45:22.283Z,1016.64
2019-02-21T14:50:21.647Z,1016.61
2019-02-21T14:55:22.313Z,1016.53
2019-02-21T15:00:21.272Z,1016.59
2019-02-21T15:05:22.356Z,1016.46
2019-02-21T15:10:21.515Z,1016.57
2019-02-21T15:15:22.381Z,1016.62
2019-02-21T15:20:21.342Z,1016.65
2019-02-21T15:25:21.277Z,1016.64
2019-02-21T15:30:21.330Z,1016.59
2019-02-21T15:35:21.410Z,1016.62
2019-02-21T15:40:21.417Z,1016.62
2019-02-21T15:45:23.462Z,1016.66
2019-02-21T15:50:21.296Z,1016.74
2019-02-21T15:55:22.275Z,1016.78
2019-02-21T16:00:22.303Z,1016.83
2019-02-21T16:05:22.263Z,1016.88
2019-02-21T16:10:22.415Z,1016.90
2019-02-21T16:15:23.376Z,1016.94
2019-02-21T16:20:23.286Z,1016.94
2019-02-21T16:25:22.304Z,1016.99
2019-02-21T16:30:22.135Z,1017.01
2019-02-21T16:35:22.303Z,1016.98
2019-02-21T16:40:21.303Z,1016.97
2019-02-21T16:45:22.337Z,1017.05
2019-02-21T16:50:29.202Z,1016.97
2019-02-21T16:55:21.315Z,1017.12
2019-02-21T17:00:21.343Z,1017.07
2019-02-21T17:05:20.573Z,1017.15
2019-02-21T17:10:20.283Z,1017.17
2019-02-21T17:15:20.256Z,1017.25
2019-02-21T17:20:19.286Z,1017.35
2019-02-21T17:25:20.277Z,1017.43
2019-02-21T17:30:20.331Z,1017.41
2019-02-21T17:35:21.258Z,1017.54
2019-02-21T17:40:22.302Z,1017.59
2019-02-21T17:45:22.297Z,1017.56
2019-02-21T17:50:22.263Z,1017.64
2019-02-21T17:55:21.633Z,1017.71
2019-02-21T18:00:21.450Z,1017.79
2019-02-21T18:05:21.476Z,1017.87
2019-02-21T18:10:20.620Z,1017.87
2019-02-21T18:15:21.419Z,1017.84
2019-02-21T18:20:20.371Z,1017.87
2019-02-21T18:25:19.412Z,1017.81
2019-02-21T18:30:19.461Z,1017.89
2019-02-21T18:35:18.510Z,1017.91
2019-02-21T18:40:20.622Z,1017.97
2019-02-21T18:45:18.275Z,1018.05
2019-02-21T18:50:18.245Z,1018.10
2019-02-21T18:55:17.321Z,1018.16
2019-02-21T19:00:17.337Z,1018.24
2019-02-21T19:05:16.362Z,1018.24
2019-02-21T19:10:15.309Z,1018.34
2019-02-21T19:15:14.310Z,1018.46
2019-02-21T19:20:14.364Z,1018.43
2019-02-21T19:25:13.297Z,1018.42
2019-02-21T19:30:12.480Z,1018.41
2019-02-21T19:35:12.265Z,1018.43
2019-02-21T19:40:11.652Z,1018.41
2019-02-21T19:45:10.548Z,1018.56
2019-02-21T19:50:10.515Z,1018.56
2019-02-21T19:55:10.314Z,1018.59
2019-02-21T20:00:11.699Z,1018.72
2019-02-21T20:05:11.313Z,1018.79
2019-02-21T20:10:11.477Z,1018.74
2019-02-21T20:15:11.256Z,1018.78
2019-02-21T20:20:10.474Z,1018.91
2019-02-21T20:25:10.368Z,1018.94
2019-02-21T20:30:10.317Z,1018.99
2019-02-21T20:35:10.334Z,1019.17
2019-02-21T20:40:10.326Z,1019.20
2019-02-21T20:45:10.753Z,1019.27
2019-02-21T20:50:09.461Z,1019.30
2019-02-21T20:55:09.461Z,1019.38
2019-02-21T21:00:08.294Z,1019.45
2019-02-21T21:05:08.437Z,1019.51
2019-02-21T21:10:07.958Z,1019.59
2019-02-21T21:15:06.306Z,1019.56
2019-02-21T21:20:15.515Z,1019.61
2019-02-21T21:25:06.381Z,1019.80
2019-02-21T21:30:06.352Z,1019.77
2019-02-21T21:35:06.299Z,1019.82
2019-02-21T21:40:06.327Z,1019.79
2019-02-21T21:45:07.540Z,1019.84
2019-02-21T21:50:08.288Z,1019.81
2019-02-21T21:55:07.525Z,1019.87
2019-02-21T22:00:06.296Z,1019.97
2019-02-21T22:05:06.277Z,1019.84
2019-02-21T22:10:06.061Z,1019.84
2019-02-21T22:15:05.023Z,1019.94
2019-02-21T22:20:05.042Z,1019.94
2019-02-21T22:25:05.094Z,1020.07
2019-02-21T22:30:05.007Z,1020.15
2019-02-21T22:35:04.312Z,1020.04
2019-02-21T22:40:04.058Z,1020.10
2019-02-21T22:45:05.396Z,1020.18
2019-02-21T22:50:03.035Z,1020.17
2019-02-21T22:55:09.887Z,1020.09
2019-02-21T23:00:02.104Z,1020.15
2019-02-21T23:05:02.043Z,1020.17
2019-02-21T23:10:02.064Z,1020.28
2019-02-21T23:15:02.044Z,1020.28
2019-02-21T23:20:01.029Z,1020.51
2019-02-21T23:25:00.998Z,1020.51
2019-02-21T23:30:02.031Z,1020.54
2019-02-21T23:35:02.049Z,1020.46
2019-02-21T23:40:02.033Z,1020.38
2019-02-21T23:45:01.045Z,1020.38
2019-02-21T23:50:00.314Z,1020.49
2019-02-21T23:55:01.033Z,1020.51
